BIG weather

Allen Army Airfield
Delta Junction Ft Greely, Alaska, United States

Public forecast

Using degrees Fahrenheit for public forecast. Weather courtesy of forecast.io.

Current aviation weather report (METAR) for Allen Army Airfield

Retrieved 2020/05/30 01:53 UTC (12 minutes ago):

PABI 300153Z 14004KT 10SM SCT065 BKN090 BKN140 19/01 A2995 RMK AO2 PK WND 16031/0125 WSHFT 0040 RAB15E24 SLP144 SHRA DSNT SW VIRGA OHD AND DSNT ALQDS P0000 T01940011

Aviation forecast (TAF) for Allen Army Airfield

Retrieved 2020-05-30 01:27 UTC (38 minutes ago):

TAF PABI 300120Z 3001/3104 11015G20KT 9999 BKN075 520052 QNH2990INS BECMG 3004/3005 12009KT 9999 FEW065 510042 QNH2975INS BECMG 3021/3022 08012G18KT 9999 FEW065 520033 QNH2966INS TX23/3001Z TN10/3012Z